Time;durP1;ratioP1;P1;durP2;ratioP2;P2;SDS_P1;SDS_P2;PMS_P1;PMS_P2;Temp;Humidity;BMP_temperature;BMP_pressure;BME280_temperature;BME280_humidity;BME280_pressure;Samples;Min_cycle;Max_cycle;Signal;HPM_P1;HPM_P2
2022/09/19 00:01:54;;;;;;;12.85;7.28;;;;;;;-142.57;100.00;68379.81;5049730;28;20566;-78
2022/09/19 00:04:22;;;;;;;10.75;7.55;;;;;;;-142.57;100.00;68379.81;5053633;28;20032;-78
2022/09/19 00:06:48;;;;;;;17.23;7.70;;;;;;;-142.57;100.00;68379.81;5043571;28;20025;-78
2022/09/19 00:09:17;;;;;;;13.25;7.43;;;;;;;-142.57;100.00;68379.81;5051700;28;20021;-78
2022/09/19 00:11:44;;;;;;;14.05;7.47;;;;;;;-142.57;100.00;68379.81;5032698;28;20040;-78
2022/09/19 00:14:14;;;;;;;12.55;7.63;;;;;;;-142.57;100.00;68379.81;5049748;28;20021;-78
2022/09/19 00:16:41;;;;;;;25.83;7.32;;;;;;;-142.57;100.00;68379.81;5034417;28;20040;-79
2022/09/19 00:19:09;;;;;;;10.55;7.15;;;;;;;-142.57;100.00;68379.81;5052129;28;20495;-79
2022/09/19 00:21:38;;;;;;;20.45;7.55;;;;;;;-142.57;100.00;68379.81;5051769;28;20025;-78
2022/09/19 00:26:50;;;;;;;16.08;7.15;;;;;;;-142.57;100.00;68379.81;5052246;28;20498;-78
2022/09/19 00:29:17;;;;;;;16.15;7.32;;;;;;;-142.57;100.00;68379.81;5051889;28;20104;-79
2022/09/19 00:31:44;;;;;;;19.23;8.38;;;;;;;-142.57;100.00;68379.81;5051394;28;20102;-79
2022/09/19 00:34:10;;;;;;;11.68;6.78;;;;;;;-142.57;100.00;68379.81;5024944;28;20036;-79
2022/09/19 00:36:37;;;;;;;10.52;6.88;;;;;;;-142.57;100.00;68379.81;5059034;28;20490;-80
2022/09/19 00:39:05;;;;;;;15.98;7.60;;;;;;;-142.57;100.00;68379.81;5051741;28;20033;-81
2022/09/19 00:41:30;;;;;;;13.18;7.07;;;;;;;-142.57;100.00;68379.81;5051367;28;20078;-80
2022/09/19 00:44:02;;;;;;;18.65;9.35;;;;;;;-142.57;100.00;68379.81;5052721;28;20024;-79
2022/09/19 00:46:29;;;;;;;18.60;9.02;;;;;;;-142.57;100.00;68379.81;5053002;28;20483;-80
2022/09/19 00:49:03;;;;;;;17.83;9.80;;;;;;;-142.57;100.00;68379.81;5051288;28;20025;-79
2022/09/19 00:51:32;;;;;;;21.90;10.25;;;;;;;-142.57;100.00;68379.81;5052336;28;20033;-79
2022/09/19 00:54:12;;;;;;;20.38;10.02;;;;;;;-142.57;100.00;68379.81;5048447;28;20551;-79
2022/09/19 00:56:52;;;;;;;15.30;9.60;;;;;;;-142.57;100.00;68379.81;5051909;28;20483;-79
2022/09/19 00:59:19;;;;;;;13.60;9.35;;;;;;;-142.57;100.00;68379.81;5051655;28;20082;-80
2022/09/19 01:01:46;;;;;;;17.00;10.43;;;;;;;-142.57;100.00;68379.81;5022388;28;20035;-79
2022/09/19 01:04:20;;;;;;;20.70;10.35;;;;;;;-142.57;100.00;68379.81;5046677;28;20435;-79
2022/09/19 01:06:49;;;;;;;;;;;;;;;-142.57;100.00;68379.81;5087765;28;20024;-78
2022/09/19 01:09:36;;;;;;;17.48;11.68;;;;;;;-142.57;100.00;68379.81;5052848;28;19963;-79
2022/09/19 01:12:16;;;;;;;17.25;10.25;;;;;;;-142.57;100.00;68379.81;5087812;28;20017;-79
2022/09/19 01:15:24;;;;;;;17.13;10.05;;;;;;;-142.57;100.00;68379.81;5052743;28;20480;-79
2022/09/19 01:18:01;;;;;;;25.33;11.50;;;;;;;-142.57;100.00;68379.81;5047446;28;20033;-79
2022/09/19 01:21:38;;;;;;;20.10;12.30;;;;;;;-142.57;100.00;68379.81;5051410;28;20085;-78
2022/09/19 01:24:05;;;;;;;16.38;9.93;;;;;;;-142.57;100.00;68379.81;5042062;28;20033;-80
2022/09/19 01:27:00;;;;;;;17.30;11.07;;;;;;;-142.57;100.00;68379.81;5051844;28;20477;-79
2022/09/19 01:29:45;;;;;;;21.10;11.27;;;;;;;-142.57;100.00;68379.81;5052205;28;20049;-79
2022/09/19 01:32:18;;;;;;;18.17;9.85;;;;;;;-142.57;100.00;68379.81;5050743;28;20348;-78
2022/09/19 01:34:50;;;;;;;13.30;8.95;;;;;;;-142.57;100.00;68379.81;5038968;28;20030;-79
2022/09/19 01:37:19;;;;;;;22.52;12.48;;;;;;;-142.57;100.00;68379.81;5038483;28;20029;-79
2022/09/19 01:39:49;;;;;;;18.58;9.88;;;;;;;-142.57;100.00;68379.81;5034666;28;20071;-79
2022/09/19 01:42:18;;;;;;;23.67;9.57;;;;;;;-142.57;100.00;68379.81;5038130;28;20021;-81
2022/09/19 01:44:43;;;;;;;11.80;7.63;;;;;;;-142.57;100.00;68379.81;5054230;28;20021;-78
2022/09/19 01:47:36;;;;;;;15.75;9.23;;;;;;;-142.57;100.00;68379.81;5051077;28;20460;-79
2022/09/19 01:50:25;;;;;;;19.73;9.05;;;;;;;-142.57;100.00;68379.81;5040510;28;20029;-78
2022/09/19 01:53:09;;;;;;;19.25;9.07;;;;;;;-142.57;100.00;68379.81;5068957;28;20539;-78
2022/09/19 01:55:40;;;;;;;18.00;7.90;;;;;;;-142.57;100.00;68379.81;5041389;28;20111;-78
2022/09/19 01:58:22;;;;;;;20.40;8.90;;;;;;;-142.57;100.00;68379.81;5052791;28;20024;-77
2022/09/19 02:01:27;;;;;;;19.75;7.80;;;;;;;-142.57;100.00;68379.81;5049018;28;20037;-77
2022/09/19 02:04:05;;;;;;;18.15;7.78;;;;;;;-142.57;100.00;68379.81;5044344;28;20029;-77
2022/09/19 02:06:47;;;;;;;22.38;8.15;;;;;;;-142.57;100.00;68379.81;5050957;28;20108;-78
2022/09/19 02:09:32;;;;;;;14.60;7.00;;;;;;;-142.57;100.00;68379.81;5056088;28;20057;-78
2022/09/19 02:12:01;;;;;;;17.60;7.82;;;;;;;-142.57;100.00;68379.81;5053913;28;20033;-77
2022/09/19 02:14:28;;;;;;;16.65;7.90;;;;;;;-142.57;100.00;68379.81;5053854;28;20031;-78
2022/09/19 02:17:13;;;;;;;13.15;7.20;;;;;;;-142.57;100.00;68379.81;5054563;28;20078;-77
2022/09/19 02:19:40;;;;;;;17.33;7.43;;;;;;;-142.57;100.00;68379.81;5051236;28;20187;-78
2022/09/19 02:22:09;;;;;;;14.15;7.30;;;;;;;-142.57;100.00;68379.81;5054561;28;20053;-77
2022/09/19 02:24:38;;;;;;;14.68;7.65;;;;;;;-142.57;100.00;68379.81;5060709;28;20033;-77
2022/09/19 02:27:09;;;;;;;12.88;6.75;;;;;;;-142.57;100.00;68379.81;5057639;28;20065;-77
2022/09/19 02:29:40;;;;;;;15.10;7.05;;;;;;;-142.57;100.00;68379.81;5051121;28;20025;-77
2022/09/19 02:32:07;;;;;;;17.33;6.75;;;;;;;-142.57;100.00;68379.81;5055412;28;20061;-78
2022/09/19 02:34:32;;;;;;;12.52;6.38;;;;;;;-142.57;100.00;68379.81;5053672;28;20020;-78
2022/09/19 02:37:21;;;;;;;13.02;6.07;;;;;;;-142.57;100.00;68379.81;5054770;28;20033;-78
2022/09/19 02:39:48;;;;;;;16.25;6.22;;;;;;;-142.57;100.00;68379.81;5058687;28;20048;-78
2022/09/19 02:42:20;;;;;;;13.32;6.18;;;;;;;-142.57;100.00;68379.81;5060162;28;20059;-78
2022/09/19 02:44:52;;;;;;;9.55;5.88;;;;;;;-142.57;100.00;68379.81;5044496;28;20057;-78
2022/09/19 02:47:27;;;;;;;14.00;5.78;;;;;;;-142.57;100.00;68379.81;5048305;28;20033;-78
2022/09/19 02:50:08;;;;;;;19.38;7.07;;;;;;;-142.57;100.00;68379.81;5039719;28;20443;-78
2022/09/19 02:52:34;;;;;;;21.70;6.65;;;;;;;-142.57;100.00;68379.81;5054587;28;20039;-77
2022/09/19 02:55:08;;;;;;;12.48;5.15;;;;;;;-142.57;100.00;68379.81;5041752;28;20029;-77
2022/09/19 02:57:34;;;;;;;9.80;4.88;;;;;;;-142.57;100.00;68379.81;5053628;28;20043;-77
2022/09/19 03:00:01;;;;;;;7.38;4.55;;;;;;;-142.57;100.00;68379.81;5031288;28;20498;-77
2022/09/19 03:02:35;;;;;;;20.17;5.93;;;;;;;-142.57;100.00;68379.81;5033576;28;20032;-77
2022/09/19 03:05:06;;;;;;;8.57;4.43;;;;;;;-142.57;100.00;68379.81;5053450;28;20033;-78
2022/09/19 03:07:36;;;;;;;16.80;5.65;;;;;;;-142.57;100.00;68379.81;5053616;28;20294;-76
2022/09/19 03:10:14;;;;;;;17.83;6.35;;;;;;;-142.57;100.00;68379.81;5053920;28;20033;-77
2022/09/19 03:12:56;;;;;;;10.15;6.00;;;;;;;-142.57;100.00;68379.81;5053146;28;20032;-77
2022/09/19 03:15:36;;;;;;;10.82;5.78;;;;;;;-142.57;100.00;68379.81;5053295;28;20060;-77
2022/09/19 03:18:04;;;;;;;14.18;6.28;;;;;;;-142.57;100.00;68379.81;5053231;28;20048;-77
2022/09/19 03:20:29;;;;;;;10.45;5.75;;;;;;;-142.57;100.00;68379.81;5053976;28;20025;-77
2022/09/19 03:22:55;;;;;;;12.30;5.18;;;;;;;-142.57;100.00;68379.81;5034858;28;20040;-77
2022/09/19 03:25:20;;;;;;;10.52;5.72;;;;;;;-142.57;100.00;68379.81;5061041;28;20543;-77
2022/09/19 03:27:45;;;;;;;15.20;6.18;;;;;;;-142.57;100.00;68379.81;5060375;28;20025;-78
2022/09/19 03:30:13;;;;;;;15.57;6.22;;;;;;;-142.57;100.00;68379.81;5054487;28;20058;-79
2022/09/19 03:32:41;;;;;;;17.23;5.05;;;;;;;-142.57;100.00;68379.81;5037077;28;20083;-78
2022/09/19 03:35:07;;;;;;;16.27;4.63;;;;;;;-142.57;100.00;68379.81;5053936;28;20483;-77
2022/09/19 03:37:33;;;;;;;14.35;5.82;;;;;;;-142.57;100.00;68379.81;5053229;28;20058;-77
2022/09/19 03:39:59;;;;;;;18.63;5.53;;;;;;;-142.57;100.00;68379.81;5053512;28;20479;-77
2022/09/19 03:42:25;;;;;;;17.90;5.80;;;;;;;-142.57;100.00;68379.81;5052986;28;20035;-77
2022/09/19 03:44:52;;;;;;;10.98;4.30;;;;;;;-142.57;100.00;68379.81;5052931;28;20025;-78
2022/09/19 03:47:18;;;;;;;12.85;5.20;;;;;;;-142.57;100.00;68379.81;5044884;28;20075;-77
2022/09/19 03:49:44;;;;;;;13.68;4.28;;;;;;;-142.57;100.00;68379.81;5052045;28;20112;-78
2022/09/19 03:52:09;;;;;;;13.45;5.28;;;;;;;-142.57;100.00;68379.81;5060232;28;20453;-76
2022/09/19 03:54:35;;;;;;;10.20;4.97;;;;;;;-142.57;100.00;68379.81;5063439;28;20036;-77
2022/09/19 03:57:01;;;;;;;12.57;4.85;;;;;;;-142.57;100.00;68379.81;5059447;28;20037;-77
2022/09/19 03:59:26;;;;;;;15.02;5.15;;;;;;;-142.57;100.00;68379.81;5057929;28;20025;-76
2022/09/19 04:01:54;;;;;;;14.13;5.38;;;;;;;-142.57;100.00;68379.81;5052874;28;20028;-76
2022/09/19 04:04:21;;;;;;;10.48;5.22;;;;;;;-142.57;100.00;68379.81;5044050;28;20022;-76
2022/09/19 04:06:47;;;;;;;18.73;4.95;;;;;;;-142.57;100.00;68379.81;5052818;28;20025;-76
2022/09/19 04:09:12;;;;;;;16.73;5.20;;;;;;;-142.57;100.00;68379.81;5053103;28;20028;-76
2022/09/19 04:11:39;;;;;;;9.85;5.10;;;;;;;-142.57;100.00;68379.81;5053400;28;20033;-76
2022/09/19 04:14:04;;;;;;;11.48;5.40;;;;;;;-142.57;100.00;68379.81;5053859;28;20112;-75
2022/09/19 04:16:30;;;;;;;16.00;4.75;;;;;;;-142.57;100.00;68379.81;5053747;28;20104;-76
2022/09/19 04:18:55;;;;;;;12.82;5.03;;;;;;;-142.57;100.00;68379.81;5053086;28;20506;-77
2022/09/19 04:21:21;;;;;;;12.73;5.78;;;;;;;-142.57;100.00;68379.81;5039055;28;20025;-76
2022/09/19 04:23:46;;;;;;;10.35;4.68;;;;;;;-142.57;100.00;68379.81;5050924;28;20112;-76
2022/09/19 04:26:12;;;;;;;10.65;4.22;;;;;;;-142.57;100.00;68379.81;5053533;28;20024;-76
2022/09/19 04:28:39;;;;;;;15.00;5.72;;;;;;;-142.57;100.00;68379.81;5056635;28;20044;-77
2022/09/19 04:31:08;;;;;;;10.18;5.60;;;;;;;-142.57;100.00;68379.81;5060155;28;20128;-76
2022/09/19 04:33:34;;;;;;;13.82;5.28;;;;;;;-142.57;100.00;68379.81;5051399;28;20028;-75
2022/09/19 04:36:00;;;;;;;13.50;5.50;;;;;;;-142.57;100.00;68379.81;5053199;28;20037;-75
2022/09/19 04:38:26;;;;;;;14.15;5.60;;;;;;;-142.57;100.00;68379.81;5053350;28;20040;-75
2022/09/19 04:40:56;;;;;;;13.63;5.75;;;;;;;-142.57;100.00;68379.81;5053448;28;20115;-77
2022/09/19 04:43:23;;;;;;;13.35;5.15;;;;;;;-142.57;100.00;68379.81;5040560;28;20041;-77
2022/09/19 04:45:50;;;;;;;17.33;5.57;;;;;;;-142.57;100.00;68379.81;5053269;28;20107;-75
2022/09/19 04:48:17;;;;;;;19.77;6.40;;;;;;;-142.57;100.00;68379.81;5045859;28;20032;-78
2022/09/19 04:50:50;;;;;;;19.25;5.90;;;;;;;-142.57;100.00;68379.81;5044964;28;20033;-77
2022/09/19 04:53:18;;;;;;;16.30;6.03;;;;;;;-142.57;100.00;68379.81;5052686;28;20064;-79
2022/09/19 04:55:48;;;;;;;10.68;5.40;;;;;;;-142.57;100.00;68379.81;5034814;28;20150;-80
2022/09/19 04:58:15;;;;;;;11.82;5.40;;;;;;;-142.57;100.00;68379.81;5052685;28;20038;-78
2022/09/19 05:00:41;;;;;;;12.15;6.32;;;;;;;-142.57;100.00;68379.81;5051874;28;20035;-77
2022/09/19 05:03:09;;;;;;;11.75;6.47;;;;;;;-142.57;100.00;68379.81;5050962;28;20092;-78
2022/09/19 05:05:36;;;;;;;15.48;5.80;;;;;;;-142.57;100.00;68379.81;5051570;28;20102;-79
2022/09/19 05:08:03;;;;;;;15.73;5.50;;;;;;;-142.57;100.00;68379.81;5051566;28;20025;-79
2022/09/19 05:10:31;;;;;;;17.27;5.68;;;;;;;-142.57;100.00;68379.81;5050570;28;20037;-79
2022/09/19 05:12:56;;;;;;;15.10;6.05;;;;;;;-142.57;100.00;68379.81;5051012;28;20447;-78
2022/09/19 05:15:23;;;;;;;7.50;5.40;;;;;;;-142.57;100.00;68379.81;5052551;28;20120;-77
2022/09/19 05:17:52;;;;;;;11.23;5.13;;;;;;;-142.57;100.00;68379.81;5050843;28;20036;-78
2022/09/19 05:20:19;;;;;;;24.95;6.70;;;;;;;-142.57;100.00;68379.81;5052737;28;20467;-78
2022/09/19 05:22:44;;;;;;;9.35;5.38;;;;;;;-142.57;100.00;68379.81;5051508;28;20033;-78
2022/09/19 05:25:10;;;;;;;15.85;6.78;;;;;;;-142.57;100.00;68379.81;5051215;28;20489;-77
2022/09/19 05:27:36;;;;;;;16.90;6.13;;;;;;;-142.57;100.00;68379.81;5052545;28;20025;-78
2022/09/19 05:30:03;;;;;;;11.98;6.43;;;;;;;-142.57;100.00;68379.81;5018620;28;20994;-76
2022/09/19 05:32:29;;;;;;;11.75;5.50;;;;;;;-142.57;100.00;68379.81;5000129;28;20984;-76
2022/09/19 05:34:56;;;;;;;13.13;5.70;;;;;;;-142.57;100.00;68379.81;5013265;28;20040;-78
2022/09/19 05:37:22;;;;;;;17.25;6.07;;;;;;;-142.57;100.00;68379.81;5055392;28;20104;-76
2022/09/19 05:39:48;;;;;;;14.15;5.90;;;;;;;-142.57;100.00;68379.81;5054137;28;20112;-77
2022/09/19 05:42:13;;;;;;;14.13;5.90;;;;;;;-142.57;100.00;68379.81;5043934;28;20017;-76
2022/09/19 05:44:39;;;;;;;10.38;5.05;;;;;;;-142.57;100.00;68379.81;5047995;28;20057;-77
2022/09/19 05:47:04;;;;;;;15.48;6.53;;;;;;;-142.57;100.00;68379.81;5042966;28;20111;-76
2022/09/19 05:49:31;;;;;;;16.50;7.25;;;;;;;-142.57;100.00;68379.81;5053918;28;20021;-77
2022/09/19 05:53:51;;;;;;;16.02;5.22;;;;;;;-142.57;100.00;68379.81;5061030;28;20021;-76
2022/09/19 05:54:42;;;;;;;20.90;6.55;;;;;;;-142.57;100.00;68379.81;5051960;28;20060;-75
2022/09/19 05:57:07;;;;;;;14.05;5.65;;;;;;;-142.57;100.00;68379.81;5059301;28;20067;-75
2022/09/19 05:59:32;;;;;;;19.20;5.78;;;;;;;-142.57;100.00;68379.81;5054549;28;20036;-76
2022/09/19 06:02:01;;;;;;;13.40;5.63;;;;;;;-142.57;100.00;68379.81;5052040;28;20025;-76
2022/09/19 06:04:26;;;;;;;13.25;5.43;;;;;;;-142.57;100.00;68379.81;5051950;28;20029;-76
2022/09/19 06:06:52;;;;;;;16.35;6.20;;;;;;;-142.57;100.00;68379.81;5044079;28;20494;-76
2022/09/19 06:09:17;;;;;;;16.15;5.13;;;;;;;-142.57;100.00;68379.81;5058105;28;20039;-76
2022/09/19 06:11:43;;;;;;;14.15;5.50;;;;;;;-142.57;100.00;68379.81;5050367;28;20029;-79
2022/09/19 06:14:14;;;;;;;20.52;6.78;;;;;;;-142.57;100.00;68379.81;5050842;28;20383;-76
2022/09/19 06:16:41;;;;;;;25.00;6.65;;;;;;;-142.57;100.00;68379.81;5034682;28;20387;-78
2022/09/19 06:19:08;;;;;;;11.23;5.55;;;;;;;-142.57;100.00;68379.81;5040980;28;20044;-76
2022/09/19 06:21:33;;;;;;;15.73;6.05;;;;;;;-142.57;100.00;68379.81;5048055;28;20491;-77
2022/09/19 06:23:59;;;;;;;14.10;5.78;;;;;;;-142.57;100.00;68379.81;5049858;28;20025;-74
2022/09/19 06:26:26;;;;;;;14.90;5.93;;;;;;;-142.57;100.00;68379.81;5050364;28;20037;-74
2022/09/19 06:28:51;;;;;;;14.02;5.88;;;;;;;-142.57;100.00;68379.81;5039057;28;20037;-74
2022/09/19 06:31:18;;;;;;;15.15;5.72;;;;;;;-142.57;100.00;68379.81;5016319;28;20098;-74
2022/09/19 06:33:43;;;;;;;16.83;5.95;;;;;;;-142.57;100.00;68379.81;5048872;28;20029;-75
2022/09/19 06:36:10;;;;;;;13.80;7.20;;;;;;;-142.57;100.00;68379.81;5050419;28;20041;-74
2022/09/19 06:38:36;;;;;;;19.08;6.63;;;;;;;-142.57;100.00;68379.81;5050947;28;20537;-75
2022/09/19 06:41:06;;;;;;;16.35;6.38;;;;;;;-142.57;100.00;68379.81;5046391;28;20112;-75
2022/09/19 06:43:31;;;;;;;15.73;7.03;;;;;;;-142.57;100.00;68379.81;5034163;28;20044;-75
2022/09/19 06:45:57;;;;;;;14.30;6.50;;;;;;;-142.57;100.00;68379.81;5055029;28;20050;-75
2022/09/19 06:48:22;;;;;;;15.07;5.85;;;;;;;-142.57;100.00;68379.81;5063287;28;20021;-75
2022/09/19 06:50:48;;;;;;;16.40;7.40;;;;;;;-142.57;100.00;68379.81;5053721;28;20032;-75
2022/09/19 06:53:14;;;;;;;17.27;6.38;;;;;;;-142.57;100.00;68379.81;5054807;28;20021;-78
2022/09/19 06:55:40;;;;;;;20.20;6.88;;;;;;;-142.57;100.00;68379.81;5053798;28;20043;-75
2022/09/19 06:58:06;;;;;;;16.15;6.95;;;;;;;-142.57;100.00;68379.81;5049902;28;20479;-75
2022/09/19 07:00:36;;;;;;;13.52;6.43;;;;;;;-142.57;100.00;68379.81;5040829;28;20382;-75
2022/09/19 07:03:03;;;;;;;23.30;6.60;;;;;;;-142.57;100.00;68379.81;5052435;28;20039;-75
2022/09/19 07:05:34;;;;;;;12.30;6.22;;;;;;;-142.57;100.00;68379.81;5055924;28;20029;-75
2022/09/19 07:07:59;;;;;;;16.65;6.95;;;;;;;-142.57;100.00;68379.81;5053478;28;20037;-75
2022/09/19 07:10:26;;;;;;;13.88;6.63;;;;;;;-142.57;100.00;68379.81;5053889;28;20395;-75
2022/09/19 07:12:55;;;;;;;23.70;6.72;;;;;;;-142.57;100.00;68379.81;5053298;28;20033;-75
2022/09/19 07:15:21;;;;;;;13.68;6.50;;;;;;;-142.57;100.00;68379.81;5033285;28;20026;-75
2022/09/19 07:17:47;;;;;;;18.35;7.18;;;;;;;-142.57;100.00;68379.81;5039696;28;20029;-74
2022/09/19 07:20:15;;;;;;;20.25;6.43;;;;;;;-142.57;100.00;68379.81;5039182;28;20433;-75
2022/09/19 07:22:41;;;;;;;19.45;6.10;;;;;;;-142.57;100.00;68379.81;5053803;28;20037;-75
2022/09/19 07:25:07;;;;;;;14.02;6.03;;;;;;;-142.57;100.00;68379.81;5051844;28;20040;-75
2022/09/19 07:27:33;;;;;;;26.55;7.35;;;;;;;-142.57;100.00;68379.81;5050631;28;20028;-75
2022/09/19 07:29:59;;;;;;;17.35;6.15;;;;;;;-142.57;100.00;68379.81;5053353;28;20025;-75
2022/09/19 07:32:24;;;;;;;16.40;6.65;;;;;;;-142.57;100.00;68379.81;5054361;28;20123;-74
2022/09/19 07:34:49;;;;;;;13.00;5.68;;;;;;;-142.57;100.00;68379.81;5053799;28;20041;-75
2022/09/19 07:37:15;;;;;;;17.35;6.60;;;;;;;-142.57;100.00;68379.81;5051971;28;20448;-75
2022/09/19 07:39:40;;;;;;;20.65;6.20;;;;;;;-142.57;100.00;68379.81;5053312;28;20061;-74
2022/09/19 07:42:06;;;;;;;13.77;6.07;;;;;;;-142.57;100.00;68379.81;5047612;28;20024;-74
2022/09/19 07:44:31;;;;;;;18.67;6.00;;;;;;;-142.57;100.00;68379.81;5049389;28;20123;-75
2022/09/19 07:49:40;;;;;;;17.20;7.57;;;;;;;-142.57;100.00;68379.81;5053591;28;20039;-74
2022/09/19 07:52:06;;;;;;;21.00;6.72;;;;;;;-142.57;100.00;68379.81;5050952;28;20322;-74
2022/09/19 07:54:32;;;;;;;15.25;6.65;;;;;;;-142.57;100.00;68379.81;5052972;28;20039;-73
2022/09/19 07:56:59;;;;;;;15.95;6.47;;;;;;;-142.57;100.00;68379.81;5047088;28;20087;-74
2022/09/19 07:59:24;;;;;;;15.75;6.00;;;;;;;-142.57;100.00;68379.81;5052162;28;20040;-74
2022/09/19 08:01:49;;;;;;;11.95;5.43;;;;;;;-142.57;100.00;68379.81;5052282;28;20025;-75
2022/09/19 08:04:15;;;;;;;16.83;6.03;;;;;;;-142.57;100.00;68379.81;5053268;28;20104;-74
2022/09/19 08:06:40;;;;;;;12.70;6.10;;;;;;;-142.57;100.00;68379.81;5054446;28;20032;-75
2022/09/19 08:09:05;;;;;;;12.57;4.82;;;;;;;-142.57;100.00;68379.81;5054267;28;20067;-74
2022/09/19 08:11:35;;;;;;;13.35;5.57;;;;;;;-142.57;100.00;68379.81;5052172;28;20083;-75
2022/09/19 08:14:01;;;;;;;14.93;4.80;;;;;;;-142.57;100.00;68379.81;5054696;28;20025;-74
2022/09/19 08:16:26;;;;;;;15.27;5.53;;;;;;;-142.57;100.00;68379.81;5045481;28;20025;-75
2022/09/19 08:18:51;;;;;;;15.80;4.72;;;;;;;-142.57;100.00;68379.81;5037644;28;20095;-74
2022/09/19 08:21:17;;;;;;;13.15;4.75;;;;;;;-142.57;100.00;68379.81;5063821;28;20033;-74
2022/09/19 08:23:42;;;;;;;10.45;4.53;;;;;;;-142.57;100.00;68379.81;5035059;28;20036;-74
2022/09/19 08:26:08;;;;;;;16.60;4.70;;;;;;;-142.57;100.00;68379.81;5051609;28;20040;-74
2022/09/19 08:28:34;;;;;;;15.73;4.45;;;;;;;-142.57;100.00;68379.81;5052393;28;20108;-75
2022/09/19 08:31:00;;;;;;;11.80;4.05;;;;;;;-142.57;100.00;68379.81;5044037;28;20029;-74
2022/09/19 08:33:25;;;;;;;11.82;4.60;;;;;;;-142.57;100.00;68379.81;5053542;28;20036;-75
2022/09/19 08:35:52;;;;;;;10.60;3.95;;;;;;;-142.57;100.00;68379.81;5047074;28;20032;-74
2022/09/19 08:38:17;;;;;;;11.70;4.30;;;;;;;-142.57;100.00;68379.81;5055663;28;20032;-74
2022/09/19 08:40:51;;;;;;;8.90;3.58;;;;;;;-142.57;100.00;68379.81;5041245;28;20028;-74
2022/09/19 08:43:24;;;;;;;12.75;4.40;;;;;;;-142.57;100.00;68379.81;5027562;28;20068;-74
2022/09/19 08:45:50;;;;;;;12.18;4.30;;;;;;;-142.57;100.00;68379.81;5042145;28;20046;-74
2022/09/19 08:48:48;;;;;;;9.23;3.08;;;;;;;-142.57;100.00;68379.81;5052313;28;20833;-74
2022/09/19 08:51:51;;;;;;;16.23;3.40;;;;;;;-142.57;100.00;68379.81;5036054;28;20511;-75
2022/09/19 08:54:27;;;;;;;11.23;4.47;;;;;;;-142.57;100.00;68379.81;5065408;28;20105;-75
2022/09/19 08:56:52;;;;;;;20.73;4.03;;;;;;;-142.57;100.00;68379.81;5025312;28;20051;-75
2022/09/19 08:59:23;;;;;;;8.82;3.22;;;;;;;-142.57;100.00;68379.81;5041397;28;20032;-76
2022/09/19 09:01:52;;;;;;;9.73;3.72;;;;;;;-142.57;100.00;68379.81;5065915;28;20063;-75
2022/09/19 09:04:30;;;;;;;10.27;3.42;;;;;;;-142.57;100.00;68379.81;5042887;28;20032;-74
2022/09/19 09:07:30;;;;;;;11.63;4.45;;;;;;;-142.57;100.00;68379.81;5051164;28;20060;-75
2022/09/19 09:10:10;;;;;;;8.10;3.55;;;;;;;-142.57;100.00;68379.81;5042573;28;20056;-75
2022/09/19 09:12:42;;;;;;;17.45;4.90;;;;;;;-142.57;100.00;68379.81;5050035;28;20041;-75
2022/09/19 09:15:25;;;;;;;18.38;3.70;;;;;;;-142.57;100.00;68379.81;5048554;28;20119;-75
2022/09/19 09:18:15;;;;;;;10.30;4.03;;;;;;;-142.57;100.00;68379.81;5035864;28;20040;-75
2022/09/19 09:21:07;;;;;;;7.40;3.10;;;;;;;-142.57;100.00;68379.81;5043821;28;20110;-76
2022/09/19 09:23:39;;;;;;;9.00;3.55;;;;;;;-142.57;100.00;68379.81;5048685;28;20037;-75
2022/09/19 09:26:12;;;;;;;12.80;3.67;;;;;;;-142.57;100.00;68379.81;5050512;28;20036;-77
2022/09/19 09:29:01;;;;;;;9.38;3.50;;;;;;;-142.57;100.00;68379.81;5046395;28;20037;-76
2022/09/19 09:31:36;;;;;;;12.15;3.85;;;;;;;-142.57;100.00;68379.81;5015213;28;20144;-75
2022/09/19 09:34:07;;;;;;;8.60;4.03;;;;;;;-142.57;100.00;68379.81;5013026;28;20041;-75
2022/09/19 09:36:46;;;;;;;6.97;2.42;;;;;;;-142.57;100.00;68379.81;5030430;28;20049;-76
2022/09/19 09:39:21;;;;;;;15.25;4.30;;;;;;;-142.57;100.00;68379.81;5032353;28;20033;-75
2022/09/19 09:41:54;;;;;;;8.48;3.33;;;;;;;-142.57;100.00;68379.81;5051455;28;20116;-75
2022/09/19 09:44:43;;;;;;;17.52;3.13;;;;;;;-142.57;100.00;68379.81;5049434;28;20032;-76
2022/09/19 09:47:21;;;;;;;7.72;3.00;;;;;;;-142.57;100.00;68379.81;5045513;28;20053;-77
2022/09/19 09:49:48;;;;;;;12.60;2.30;;;;;;;-142.57;100.00;68379.81;5051114;28;20124;-76
2022/09/19 09:52:19;;;;;;;9.90;3.65;;;;;;;-142.57;100.00;68379.81;5050612;28;20033;-76
2022/09/19 09:57:57;;;;;;;10.15;2.83;;;;;;;-142.57;100.00;68379.81;5042565;28;20036;-77
2022/09/19 10:03:44;;;;;;;7.45;2.83;;;;;;;-142.57;100.00;68379.81;5031382;28;20117;-77
2022/09/19 10:06:15;;;;;;;9.65;3.15;;;;;;;-142.57;100.00;68379.81;5038869;28;20150;-77
2022/09/19 10:08:58;;;;;;;10.73;3.28;;;;;;;-142.57;100.00;68379.81;5042484;28;20120;-75
2022/09/19 10:11:47;;;;;;;8.77;2.80;;;;;;;-142.57;100.00;68379.81;5050384;28;20107;-76
2022/09/19 10:14:18;;;;;;;7.43;2.58;;;;;;;-142.57;100.00;68379.81;5035647;28;20119;-75
2022/09/19 10:16:46;;;;;;;8.82;2.58;;;;;;;-142.57;100.00;68379.81;5032885;28;20454;-76
2022/09/19 10:19:30;;;;;;;8.55;3.60;;;;;;;-142.57;100.00;68379.81;5033524;28;20438;-76
2022/09/19 10:21:56;;;;;;;9.52;2.65;;;;;;;-142.57;100.00;68379.81;5047890;28;20078;-77
2022/09/19 10:24:45;;;;;;;6.40;2.38;;;;;;;-142.57;100.00;68379.81;5053423;28;20386;-76
2022/09/19 10:27:32;;;;;;;9.65;2.60;;;;;;;-142.57;100.00;68379.81;5055114;28;20079;-76
2022/09/19 10:30:00;;;;;;;7.22;2.80;;;;;;;-142.57;100.00;68379.81;5055134;28;20029;-76
2022/09/19 10:32:38;;;;;;;9.18;2.55;;;;;;;-142.57;100.00;68379.81;5054010;28;20429;-75
2022/09/19 10:35:20;;;;;;;6.60;2.55;;;;;;;-142.57;100.00;68379.81;5054595;28;20127;-79
2022/09/19 10:37:50;;;;;;;8.40;2.58;;;;;;;-142.57;100.00;68379.81;5055048;28;20036;-80
2022/09/19 10:40:17;;;;;;;9.43;2.63;;;;;;;-142.57;100.00;68379.81;5032108;28;20064;-76
2022/09/19 10:42:44;;;;;;;5.22;2.08;;;;;;;-142.57;100.00;68379.81;5062994;28;20052;-75
2022/09/19 10:45:28;;;;;;;8.52;2.80;;;;;;;-142.57;100.00;68379.81;5056707;28;20029;-75
2022/09/19 10:48:26;;;;;;;7.53;2.45;;;;;;;-142.57;100.00;68379.81;5057961;28;20033;-76
2022/09/19 10:50:52;;;;;;;7.72;2.45;;;;;;;-142.57;100.00;68379.81;5053240;28;20460;-75
2022/09/19 10:53:22;;;;;;;6.95;2.50;;;;;;;-142.57;100.00;68379.81;5052439;28;20036;-75
2022/09/19 10:55:52;;;;;;;7.97;2.42;;;;;;;-142.57;100.00;68379.81;5053217;28;20033;-76
2022/09/19 10:58:22;;;;;;;6.43;2.20;;;;;;;-142.57;100.00;68379.81;5052971;28;20053;-75
2022/09/19 11:00:55;;;;;;;8.65;2.08;;;;;;;-142.57;100.00;68379.81;5051232;28;20033;-76
2022/09/19 11:03:35;;;;;;;5.97;2.00;;;;;;;-142.57;100.00;68379.81;5052411;28;20053;-78
2022/09/19 11:06:13;;;;;;;7.97;2.35;;;;;;;-142.57;100.00;68379.81;5047724;28;20028;-78
2022/09/19 11:08:44;;;;;;;5.15;2.33;;;;;;;-142.57;100.00;68379.81;5052966;28;20564;-76
2022/09/19 11:11:33;;;;;;;12.68;2.55;;;;;;;-142.57;100.00;68379.81;5053467;28;20025;-75
2022/09/19 11:14:10;;;;;;;9.43;3.15;;;;;;;-142.57;100.00;68379.81;5053851;28;20045;-76
2022/09/19 11:17:02;;;;;;;4.25;1.75;;;;;;;-142.57;100.00;68379.81;5054212;28;20104;-76
2022/09/19 11:20:09;;;;;;;8.88;2.03;;;;;;;-142.57;100.00;68379.81;5052427;28;20441;-77
2022/09/19 11:22:41;;;;;;;5.88;2.03;;;;;;;-142.57;100.00;68379.81;5053556;28;20048;-76
2022/09/19 11:25:27;;;;;;;4.75;2.10;;;;;;;-142.57;100.00;68379.81;5053034;28;20025;-76
2022/09/19 11:28:17;;;;;;;4.88;2.22;;;;;;;-142.57;100.00;68379.81;5054107;28;20130;-75
2022/09/19 11:30:49;;;;;;;6.05;1.85;;;;;;;-142.57;100.00;68379.81;5042444;28;20490;-77
2022/09/19 11:33:35;;;;;;;7.07;2.60;;;;;;;-142.57;100.00;68379.81;5051611;28;20044;-77